Time;durP1;ratioP1;P1;durP2;ratioP2;P2;SDS_P1;SDS_P2;PMS_P1;PMS_P2;Temp;Humidity;BMP_temperature;BMP_pressure;BME280_temperature;BME280_humidity;BME280_pressure;Samples;Min_cycle;Max_cycle;Signal;HPM_P1;HPM_P2
2023/07/24 00:00:30;;;;;;;5.68;4.78;;;21.40;99.10;;;;;;5034314;28;20396;-42
2023/07/24 00:02:56;;;;;;;5.35;4.28;;;21.40;99.10;;;;;;5035047;28;20037;-46
2023/07/24 00:05:21;;;;;;;5.47;4.57;;;21.30;99.10;;;;;;5034424;28;20032;-44
2023/07/24 00:07:47;;;;;;;6.00;4.57;;;21.40;99.20;;;;;;5034380;28;20037;-43
2023/07/24 00:10:13;;;;;;;5.68;4.80;;;21.40;99.10;;;;;;5016233;28;20029;-41
2023/07/24 00:12:39;;;;;;;5.57;4.30;;;21.30;99.20;;;;;;5034151;28;20032;-42
2023/07/24 00:15:05;;;;;;;6.13;4.43;;;21.40;99.20;;;;;;5034104;28;20060;-44
2023/07/24 00:17:30;;;;;;;5.85;4.82;;;21.40;99.20;;;;;;5033763;28;20026;-42
2023/07/24 00:19:56;;;;;;;7.05;4.93;;;21.30;99.20;;;;;;5033940;28;20495;-42
2023/07/24 00:22:22;;;;;;;6.10;4.57;;;21.30;99.20;;;;;;5033957;28;20071;-44
2023/07/24 00:24:47;;;;;;;6.40;4.70;;;21.30;99.30;;;;;;5033940;28;20026;-42
2023/07/24 00:27:13;;;;;;;6.07;4.40;;;21.40;99.30;;;;;;5033921;28;20031;-42
2023/07/24 00:29:39;;;;;;;5.55;4.30;;;21.40;99.30;;;;;;5034121;28;20291;-44
2023/07/24 00:32:05;;;;;;;6.45;4.97;;;21.40;99.40;;;;;;5033687;28;20060;-42
2023/07/24 00:34:31;;;;;;;6.70;5.03;;;21.40;99.40;;;;;;5033667;28;20017;-44
2023/07/24 00:36:56;;;;;;;8.35;5.20;;;21.40;99.40;;;;;;5033644;28;20036;-42
2023/07/24 00:39:22;;;;;;;6.03;4.85;;;21.40;99.40;;;;;;5033115;28;20047;-42
2023/07/24 00:41:47;;;;;;;6.35;4.55;;;21.40;99.50;;;;;;5033633;28;20033;-42
2023/07/24 00:44:13;;;;;;;6.18;5.05;;;21.30;99.40;;;;;;5033566;28;20033;-42
2023/07/24 00:46:39;;;;;;;5.07;4.07;;;21.40;99.50;;;;;;5034171;28;20017;-44
2023/07/24 00:49:05;;;;;;;6.60;5.03;;;21.40;99.50;;;;;;5033215;28;20175;-42
2023/07/24 00:51:32;;;;;;;5.25;4.32;;;21.40;99.60;;;;;;5033657;28;20516;-41
2023/07/24 00:54:01;;;;;;;5.45;4.35;;;21.40;99.90;;;;;;5015469;28;20409;-43
2023/07/24 00:56:27;;;;;;;5.88;4.47;;;21.30;99.90;;;;;;5033279;28;20038;-46
2023/07/24 00:58:55;;;;;;;7.43;4.85;;;21.40;99.60;;;;;;5033073;28;20032;-42
2023/07/24 01:01:22;;;;;;;6.40;4.75;;;21.40;99.60;;;;;;5033165;28;20025;-45
2023/07/24 01:03:48;;;;;;;6.45;4.80;;;21.30;99.60;;;;;;5033204;28;20030;-42
2023/07/24 01:06:14;;;;;;;6.65;4.82;;;21.40;99.60;;;;;;5033116;28;20104;-41
2023/07/24 01:08:40;;;;;;;6.25;4.57;;;21.40;99.70;;;;;;5033214;28;20145;-41
2023/07/24 01:11:11;;;;;;;6.82;4.70;;;21.40;99.70;;;;;;5032910;28;20108;-42
2023/07/24 01:13:41;;;;;;;5.65;4.45;;;21.30;99.60;;;;;;5032991;28;20037;-42
2023/07/24 01:16:13;;;;;;;6.50;5.03;;;21.30;99.70;;;;;;5033091;28;20487;-44
2023/07/24 01:18:39;;;;;;;5.40;4.60;;;21.30;99.70;;;;;;5032879;28;20021;-44
2023/07/24 01:21:08;;;;;;;6.40;4.75;;;21.30;99.70;;;;;;5033256;28;20028;-41
2023/07/24 01:24:05;;;;;;;7.00;4.50;;;21.30;99.70;;;;;;5032818;28;20029;-43
2023/07/24 01:26:31;;;;;;;5.65;4.30;;;21.40;99.70;;;;;;5032881;28;20029;-41
2023/07/24 01:28:57;;;;;;;5.70;4.45;;;21.30;99.70;;;;;;5032548;28;20030;-44
2023/07/24 01:31:22;;;;;;;5.28;4.10;;;21.30;99.80;;;;;;5032606;28;20385;-42
2023/07/24 01:33:48;;;;;;;5.85;4.40;;;21.30;99.80;;;;;;5032552;28;20026;-42
2023/07/24 01:36:15;;;;;;;5.90;4.15;;;21.30;99.80;;;;;;5032583;28;20450;-46
2023/07/24 01:38:41;;;;;;;6.45;4.50;;;21.30;99.90;;;;;;5014820;28;20052;-43
2023/07/24 01:41:07;;;;;;;6.03;4.47;;;21.40;99.80;;;;;;5032641;28;20057;-45
2023/07/24 01:43:34;;;;;;;6.70;4.65;;;21.30;99.80;;;;;;5032385;28;20473;-44
2023/07/24 01:45:59;;;;;;;6.60;4.10;;;21.30;99.90;;;;;;5032455;28;20028;-43
2023/07/24 01:48:25;;;;;;;5.90;4.57;;;21.30;99.80;;;;;;5032300;28;20033;-43
2023/07/24 01:50:50;;;;;;;6.63;4.97;;;21.30;99.90;;;;;;5013474;28;20392;-44
2023/07/24 01:53:16;;;;;;;5.68;4.55;;;21.30;99.90;;;;;;5032122;28;20041;-45
2023/07/24 01:55:42;;;;;;;5.95;4.80;;;21.30;99.90;;;;;;5032250;28;20052;-45
2023/07/24 01:58:07;;;;;;;6.40;4.72;;;21.30;99.90;;;;;;5032118;28;20048;-41
2023/07/24 02:00:33;;;;;;;6.25;4.50;;;21.30;99.90;;;;;;5031926;28;20028;-43
2023/07/24 02:02:59;;;;;;;6.43;4.97;;;21.30;99.90;;;;;;5032060;28;20026;-48
2023/07/24 02:05:26;;;;;;;8.30;5.40;;;21.30;99.90;;;;;;5032025;28;20025;-44
2023/07/24 02:07:52;;;;;;;5.43;4.45;;;21.30;99.90;;;;;;5031850;28;20025;-45
2023/07/24 02:10:17;;;;;;;7.18;5.32;;;21.30;99.90;;;;;;5031811;28;20032;-44
2023/07/24 02:12:43;;;;;;;5.93;4.72;;;21.30;99.90;;;;;;5031980;28;20496;-41
2023/07/24 02:15:09;;;;;;;6.95;4.88;;;21.30;99.90;;;;;;5031946;28;20030;-41
2023/07/24 02:17:35;;;;;;;5.78;4.63;;;21.30;99.90;;;;;;5031821;28;20481;-42
2023/07/24 02:20:01;;;;;;;5.95;4.65;;;21.30;99.90;;;;;;5031731;28;20040;-41
2023/07/24 02:22:26;;;;;;;5.75;4.60;;;21.30;99.90;;;;;;5031995;28;20030;-42
2023/07/24 02:24:52;;;;;;;6.43;4.45;;;21.30;99.90;;;;;;5031774;28;20021;-42
2023/07/24 02:27:30;;;;;;;5.50;4.40;;;21.30;99.90;;;;;;5031842;28;20384;-41
2023/07/24 02:29:57;;;;;;;6.85;5.20;;;21.30;99.90;;;;;;5014000;28;20033;-42
2023/07/24 02:32:23;;;;;;;6.18;4.43;;;21.30;99.90;;;;;;5031636;28;20032;-41
2023/07/24 02:34:50;;;;;;;6.55;4.85;;;21.30;99.90;;;;;;5031377;28;20037;-43
2023/07/24 02:37:16;;;;;;;6.05;4.60;;;21.30;99.90;;;;;;5031536;28;20477;-41
2023/07/24 02:39:41;;;;;;;6.07;4.93;;;21.30;99.90;;;;;;5031253;28;20034;-42
2023/07/24 02:42:07;;;;;;;6.50;5.00;;;21.30;99.90;;;;;;5031469;28;20135;-42
2023/07/24 02:44:34;;;;;;;5.40;4.40;;;21.30;99.90;;;;;;5031411;28;20116;-44
2023/07/24 02:47:00;;;;;;;7.20;5.35;;;21.30;99.90;;;;;;5031430;28;20029;-43
2023/07/24 02:49:25;;;;;;;6.90;5.13;;;21.30;99.90;;;;;;5030924;28;20026;-42
2023/07/24 02:51:51;;;;;;;6.18;5.00;;;21.20;99.90;;;;;;5031334;28;20037;-42
2023/07/24 02:54:16;;;;;;;6.47;5.05;;;21.30;99.90;;;;;;5031211;28;20030;-41
2023/07/24 02:56:42;;;;;;;6.13;4.88;;;21.30;99.90;;;;;;5031268;28;20432;-42
2023/07/24 02:59:07;;;;;;;5.85;4.70;;;21.30;99.90;;;;;;5030932;28;20025;-42
2023/07/24 03:01:33;;;;;;;6.53;4.90;;;21.30;99.90;;;;;;5031020;28;20036;-42
2023/07/24 03:03:59;;;;;;;6.72;4.95;;;21.30;99.90;;;;;;5013352;28;20067;-41
2023/07/24 03:06:25;;;;;;;6.25;4.70;;;21.30;99.90;;;;;;5031181;28;20060;-41
2023/07/24 03:08:51;;;;;;;6.28;4.70;;;21.20;99.90;;;;;;5031153;28;20029;-41
2023/07/24 03:11:17;;;;;;;6.70;5.13;;;21.20;99.90;;;;;;5014786;28;20030;-42
2023/07/24 03:13:43;;;;;;;6.53;5.28;;;21.20;99.90;;;;;;5030992;28;20029;-42
2023/07/24 03:16:08;;;;;;;7.13;5.03;;;21.20;99.90;;;;;;5013318;28;20022;-42
2023/07/24 03:18:34;;;;;;;5.75;4.75;;;21.20;99.90;;;;;;5030748;28;20029;-42
2023/07/24 03:21:00;;;;;;;7.43;5.30;;;21.20;99.90;;;;;;5030829;28;20033;-42
2023/07/24 03:23:26;;;;;;;6.38;4.90;;;21.20;99.90;;;;;;5031245;28;20022;-46
2023/07/24 03:25:51;;;;;;;7.15;5.03;;;21.20;99.90;;;;;;5031087;28;20034;-43
2023/07/24 03:28:17;;;;;;;6.63;4.95;;;21.30;99.90;;;;;;5030950;28;20029;-42
2023/07/24 03:30:42;;;;;;;6.22;4.75;;;21.20;99.90;;;;;;5030820;28;20029;-45
2023/07/24 03:33:08;;;;;;;7.20;4.88;;;21.20;99.90;;;;;;5031304;28;20468;-42
2023/07/24 03:35:34;;;;;;;6.38;4.97;;;21.20;99.90;;;;;;5030910;28;20021;-42
2023/07/24 03:38:00;;;;;;;7.55;4.97;;;21.20;99.90;;;;;;5030861;28;20029;-42
2023/07/24 03:40:26;;;;;;;5.85;4.80;;;21.20;99.90;;;;;;5030703;28;20026;-42
2023/07/24 03:42:51;;;;;;;8.45;5.05;;;21.20;99.90;;;;;;5030883;28;20088;-40
2023/07/24 03:45:17;;;;;;;6.90;5.28;;;21.20;99.90;;;;;;5030886;28;20047;-40
2023/07/24 03:47:43;;;;;;;6.63;4.78;;;21.20;99.90;;;;;;5030640;28;20039;-41
2023/07/24 03:50:09;;;;;;;6.07;4.75;;;21.20;99.90;;;;;;5030517;28;20061;-42
2023/07/24 03:52:34;;;;;;;6.60;4.82;;;21.20;99.90;;;;;;5030737;28;20037;-41
2023/07/24 03:55:00;;;;;;;6.80;5.18;;;21.20;99.90;;;;;;5030637;28;20030;-43
2023/07/24 03:57:25;;;;;;;6.63;4.82;;;21.30;99.90;;;;;;5030652;28;20393;-44
2023/07/24 03:59:51;;;;;;;6.22;5.10;;;21.20;99.90;;;;;;5030459;28;20116;-48
2023/07/24 04:02:16;;;;;;;9.10;5.03;;;21.20;99.90;;;;;;5030561;28;20057;-41
2023/07/24 04:04:42;;;;;;;7.70;5.03;;;21.20;99.90;;;;;;5030593;28;20512;-42
2023/07/24 04:07:08;;;;;;;8.55;5.60;;;21.20;99.90;;;;;;5030620;28;20030;-42
2023/07/24 04:09:33;;;;;;;7.93;5.47;;;21.20;99.90;;;;;;5030331;28;20025;-42
2023/07/24 04:12:00;;;;;;;6.90;4.97;;;21.20;99.90;;;;;;5030610;28;20026;-41
2023/07/24 04:14:26;;;;;;;6.90;5.03;;;21.20;99.90;;;;;;5032638;28;20164;-42
2023/07/24 04:16:52;;;;;;;6.10;4.70;;;21.20;99.90;;;;;;5034049;28;20100;-42
2023/07/24 04:19:17;;;;;;;6.25;4.82;;;21.20;99.90;;;;;;5033696;28;20148;-40
2023/07/24 04:21:44;;;;;;;7.18;5.03;;;21.20;99.90;;;;;;5034197;28;20065;-41
2023/07/24 04:24:10;;;;;;;6.68;5.05;;;21.20;99.90;;;;;;5033961;28;20065;-42
2023/07/24 04:26:35;;;;;;;7.03;5.20;;;21.20;99.90;;;;;;5033977;28;20040;-42
2023/07/24 04:29:01;;;;;;;6.90;5.28;;;21.20;99.90;;;;;;5033647;28;20026;-41
2023/07/24 04:31:27;;;;;;;7.82;5.43;;;21.20;99.90;;;;;;5033815;28;20029;-42
2023/07/24 04:33:52;;;;;;;7.18;5.07;;;21.20;99.90;;;;;;5033759;28;20030;-44
2023/07/24 04:36:18;;;;;;;6.25;5.00;;;21.20;99.90;;;;;;5033975;28;20354;-43
2023/07/24 04:38:43;;;;;;;7.38;5.15;;;21.20;99.90;;;;;;5033597;28;20026;-43
2023/07/24 04:41:09;;;;;;;6.90;5.03;;;21.20;99.90;;;;;;5033683;28;20457;-41
2023/07/24 04:43:34;;;;;;;7.47;5.00;;;21.20;99.90;;;;;;5033714;28;20029;-42
2023/07/24 04:46:00;;;;;;;7.53;5.10;;;21.20;99.90;;;;;;5033522;28;20484;-43
2023/07/24 04:48:26;;;;;;;7.28;5.72;;;21.20;99.90;;;;;;5033372;28;20029;-46
2023/07/24 04:50:55;;;;;;;7.07;5.07;;;21.20;99.90;;;;;;5015902;28;20050;-42
2023/07/24 04:53:22;;;;;;;7.50;4.72;;;21.20;99.90;;;;;;5033404;28;20049;-39
2023/07/24 04:55:48;;;;;;;6.50;4.93;;;21.20;99.90;;;;;;5033442;28;20494;-42
2023/07/24 04:58:13;;;;;;;6.60;5.00;;;21.20;99.90;;;;;;5033306;28;20113;-40
2023/07/24 05:00:39;;;;;;;6.65;4.75;;;21.20;99.90;;;;;;5033017;28;20071;-42
2023/07/24 05:03:06;;;;;;;8.50;5.22;;;21.20;99.90;;;;;;5033221;28;20531;-43
2023/07/24 05:05:31;;;;;;;8.48;5.40;;;21.20;99.90;;;;;;5033237;28;20030;-41
2023/07/24 05:07:57;;;;;;;6.65;4.90;;;21.20;99.90;;;;;;5033214;28;20037;-43
2023/07/24 05:10:23;;;;;;;6.88;5.13;;;21.20;99.90;;;;;;5032908;28;20038;-45
2023/07/24 05:12:48;;;;;;;7.47;5.10;;;21.20;99.90;;;;;;5033097;28;20026;-42
2023/07/24 05:15:16;;;;;;;6.32;5.07;;;21.20;99.90;;;;;;5032849;28;20059;-41
2023/07/24 05:17:45;;;;;;;8.38;5.25;;;21.20;99.90;;;;;;5033087;28;20037;-42
2023/07/24 05:20:11;;;;;;;7.75;5.20;;;21.20;99.90;;;;;;5032787;28;20039;-41
2023/07/24 05:22:36;;;;;;;8.30;5.03;;;21.20;99.90;;;;;;5032879;28;20033;-46
2023/07/24 05:25:02;;;;;;;6.78;5.40;;;21.20;99.90;;;;;;5032829;28;20026;-42
2023/07/24 05:27:29;;;;;;;6.88;5.22;;;21.20;99.90;;;;;;5032788;28;20022;-44
2023/07/24 05:29:55;;;;;;;7.18;5.20;;;21.20;99.90;;;;;;5032430;28;20075;-44
2023/07/24 05:32:20;;;;;;;6.47;4.95;;;21.20;99.90;;;;;;5032975;28;20104;-45
2023/07/24 05:34:46;;;;;;;7.65;5.57;;;21.20;99.90;;;;;;5032608;28;20030;-47
2023/07/24 05:37:12;;;;;;;7.03;4.95;;;21.20;99.90;;;;;;5032593;28;20496;-41
2023/07/24 05:39:37;;;;;;;7.28;5.30;;;21.20;99.90;;;;;;5032682;28;20096;-45
2023/07/24 05:42:03;;;;;;;6.43;5.05;;;21.20;99.90;;;;;;5032635;28;20080;-43
2023/07/24 05:44:29;;;;;;;7.88;5.60;;;21.20;99.90;;;;;;5032734;28;20049;-45
2023/07/24 05:46:54;;;;;;;6.65;5.70;;;21.10;99.90;;;;;;5032609;28;20022;-43
2023/07/24 05:49:20;;;;;;;6.72;5.45;;;21.10;99.90;;;;;;5032133;28;20392;-46
2023/07/24 05:51:45;;;;;;;7.90;5.05;;;21.20;99.90;;;;;;5032341;28;20048;-45
2023/07/24 05:54:11;;;;;;;8.27;5.38;;;21.10;99.90;;;;;;5032106;28;20034;-42
2023/07/24 05:56:37;;;;;;;6.97;5.25;;;21.20;99.90;;;;;;5032269;28;20030;-39
2023/07/24 05:59:02;;;;;;;9.38;5.40;;;21.20;99.90;;;;;;5031945;28;20114;-43
2023/07/24 06:01:28;;;;;;;15.00;5.30;;;21.10;99.90;;;;;;5032509;28;20507;-41
2023/07/24 06:03:53;;;;;;;6.70;5.32;;;21.10;99.90;;;;;;5014618;28;20121;-42
2023/07/24 06:06:19;;;;;;;7.63;5.32;;;21.10;99.90;;;;;;5032242;28;20083;-40
2023/07/24 06:08:45;;;;;;;9.20;5.55;;;21.20;99.90;;;;;;5031988;28;20033;-42
2023/07/24 06:11:10;;;;;;;7.45;5.80;;;21.10;99.90;;;;;;5032044;28;20033;-42
2023/07/24 06:13:36;;;;;;;7.40;5.50;;;21.10;99.90;;;;;;5031761;28;20511;-39
2023/07/24 06:16:01;;;;;;;9.63;5.72;;;21.10;99.90;;;;;;5031909;28;20124;-42
2023/07/24 06:18:27;;;;;;;6.78;5.10;;;21.10;99.90;;;;;;5031652;28;20037;-41
2023/07/24 06:20:53;;;;;;;7.28;5.40;;;21.20;99.90;;;;;;5031607;28;20055;-42
2023/07/24 06:23:19;;;;;;;8.95;5.28;;;21.10;99.90;;;;;;5031788;28;20048;-41
2023/07/24 06:25:44;;;;;;;7.72;5.22;;;21.20;99.90;;;;;;5032401;28;20049;-41
2023/07/24 06:28:10;;;;;;;10.60;5.85;;;21.10;99.90;;;;;;5031505;28;20481;-44
2023/07/24 06:30:37;;;;;;;8.27;5.63;;;21.10;99.90;;;;;;5032115;28;20028;-42
2023/07/24 06:33:03;;;;;;;7.13;5.15;;;21.10;99.90;;;;;;5031850;28;20075;-41
2023/07/24 06:35:29;;;;;;;7.30;5.30;;;21.10;99.90;;;;;;5031597;28;20142;-44
2023/07/24 06:37:55;;;;;;;8.65;5.38;;;21.20;99.90;;;;;;5031053;28;20071;-41
2023/07/24 06:40:20;;;;;;;7.97;5.20;;;21.10;99.90;;;;;;5031726;28;20025;-42
2023/07/24 06:42:46;;;;;;;6.95;5.07;;;21.10;99.90;;;;;;5031342;28;20096;-40
2023/07/24 06:45:12;;;;;;;7.85;5.95;;;21.10;99.90;;;;;;5031386;28;20026;-42
2023/07/24 06:47:37;;;;;;;7.07;5.03;;;21.10;99.90;;;;;;5031412;28;20053;-44
2023/07/24 06:50:04;;;;;;;7.38;5.57;;;21.10;99.90;;;;;;5013909;28;20030;-41
2023/07/24 06:52:31;;;;;;;7.20;5.45;;;21.10;99.90;;;;;;5014243;28;20044;-41
2023/07/24 06:55:02;;;;;;;6.80;5.18;;;21.10;99.90;;;;;;5032304;28;20435;-41
2023/07/24 06:57:27;;;;;;;7.20;5.38;;;21.10;99.90;;;;;;5031105;28;20563;-42
2023/07/24 06:59:53;;;;;;;7.10;5.30;;;21.10;99.90;;;;;;5031028;28;20108;-40
2023/07/24 07:02:18;;;;;;;6.95;4.97;;;21.10;99.90;;;;;;5031273;28;20032;-40
2023/07/24 07:04:44;;;;;;;9.85;5.30;;;21.10;99.90;;;;;;5031256;28;20477;-41
2023/07/24 07:07:10;;;;;;;7.13;5.00;;;21.10;99.90;;;;;;5031223;28;20029;-44
2023/07/24 07:09:35;;;;;;;8.38;5.30;;;21.10;99.90;;;;;;5031162;28;20025;-41
2023/07/24 07:12:01;;;;;;;6.45;4.88;;;21.10;99.90;;;;;;5031026;28;20028;-42
2023/07/24 07:14:26;;;;;;;7.80;4.95;;;21.20;99.90;;;;;;5031173;28;20030;-44
2023/07/24 07:16:52;;;;;;;6.40;4.90;;;21.10;99.90;;;;;;5031075;28;20029;-41
2023/07/24 07:19:18;;;;;;;8.23;5.10;;;21.10;99.90;;;;;;5030740;28;20064;-42
2023/07/24 07:21:43;;;;;;;7.13;5.00;;;21.10;99.90;;;;;;5031566;28;20022;-44
2023/07/24 07:24:09;;;;;;;7.65;5.50;;;21.10;99.90;;;;;;5031008;28;20026;-41
2023/07/24 07:26:34;;;;;;;6.63;4.93;;;21.10;99.90;;;;;;5030936;28;20029;-41
2023/07/24 07:29:00;;;;;;;7.13;5.10;;;21.10;99.90;;;;;;5030744;28;20025;-41
2023/07/24 07:31:26;;;;;;;8.82;4.85;;;21.10;99.90;;;;;;5030958;28;20029;-41
2023/07/24 07:33:51;;;;;;;6.25;4.82;;;21.10;99.90;;;;;;5030850;28;20037;-42
2023/07/24 07:36:22;;;;;;;5.80;4.75;;;21.10;99.90;;;;;;5030922;28;20397;-45
2023/07/24 07:38:48;;;;;;;8.82;5.90;;;21.10;99.90;;;;;;5030718;28;20029;-41
2023/07/24 07:41:13;;;;;;;8.02;5.60;;;21.20;99.90;;;;;;5030671;28;20022;-42
2023/07/24 07:43:39;;;;;;;6.25;5.03;;;21.20;99.90;;;;;;5030814;28;20026;-42
2023/07/24 07:46:04;;;;;;;7.60;5.30;;;21.20;99.90;;;;;;5013088;28;20401;-43
2023/07/24 07:48:30;;;;;;;6.68;5.15;;;21.10;99.90;;;;;;5031511;28;20382;-41
2023/07/24 07:50:56;;;;;;;8.13;5.70;;;21.10;99.90;;;;;;5034546;28;20439;-43
2023/07/24 07:53:21;;;;;;;7.07;5.45;;;21.10;99.90;;;;;;5034645;28;20029;-42
2023/07/24 07:55:55;;;;;;;7.97;5.25;;;21.10;99.90;;;;;;5034500;28;20026;-43
2023/07/24 07:58:21;;;;;;;6.30;4.82;;;21.10;99.90;;;;;;5034446;28;20484;-40
2023/07/24 08:00:46;;;;;;;10.02;5.80;;;21.10;99.90;;;;;;5034811;28;20091;-43
2023/07/24 08:03:12;;;;;;;7.63;5.65;;;21.10;99.90;;;;;;5035025;28;20038;-43
2023/07/24 08:05:37;;;;;;;7.00;5.13;;;21.10;99.90;;;;;;5034795;28;20064;-41
2023/07/24 08:08:03;;;;;;;8.10;6.13;;;21.10;99.90;;;;;;5034298;28;20029;-42
2023/07/24 08:10:29;;;;;;;8.70;5.68;;;21.10;99.90;;;;;;5033985;28;20103;-43
2023/07/24 08:12:55;;;;;;;6.82;5.30;;;21.10;99.90;;;;;;5034179;28;20025;-41
2023/07/24 08:15:20;;;;;;;8.25;5.90;;;21.20;99.90;;;;;;5034167;28;20022;-39
2023/07/24 08:17:46;;;;;;;7.88;5.53;;;21.10;99.90;;;;;;5034050;28;20555;-40
2023/07/24 08:20:11;;;;;;;9.23;5.75;;;21.20;99.90;;;;;;5033972;28;20025;-41
2023/07/24 08:22:37;;;;;;;6.97;5.45;;;21.10;99.90;;;;;;5034016;28;20476;-45
2023/07/24 08:25:03;;;;;;;10.18;5.30;;;21.10;99.90;;;;;;5033912;28;20061;-41
2023/07/24 08:27:29;;;;;;;7.43;5.50;;;21.10;99.90;;;;;;5033863;28;20108;-40
2023/07/24 08:29:55;;;;;;;10.65;5.40;;;21.20;99.90;;;;;;5033760;28;20496;-42
2023/07/24 08:32:20;;;;;;;6.72;5.38;;;21.10;99.90;;;;;;5033866;28;20116;-43
2023/07/24 08:34:46;;;;;;;7.47;5.10;;;21.10;99.90;;;;;;5033743;28;20037;-47
2023/07/24 08:37:12;;;;;;;7.32;5.15;;;21.10;99.90;;;;;;5033749;28;20121;-43
2023/07/24 08:39:38;;;;;;;7.75;5.35;;;21.10;99.90;;;;;;5033380;28;20022;-41
2023/07/24 08:42:14;;;;;;;7.82;5.43;;;21.10;99.90;;;;;;5015897;28;20018;-42
2023/07/24 08:44:40;;;;;;;6.93;5.20;;;21.10;99.90;;;;;;5016056;28;20025;-45
2023/07/24 08:47:09;;;;;;;6.85;5.03;;;21.10;99.90;;;;;;5033593;28;20488;-44
2023/07/24 08:49:38;;;;;;;7.85;5.30;;;21.10;99.90;;;;;;5033263;28;20025;-41
2023/07/24 08:52:06;;;;;;;8.25;5.40;;;21.20;99.90;;;;;;5033402;28;20028;-42
2023/07/24 08:54:35;;;;;;;7.03;5.40;;;21.10;99.90;;;;;;5033393;28;20060;-41
2023/07/24 08:57:01;;;;;;;9.63;4.97;;;21.10;99.90;;;;;;5033391;28;20025;-43
2023/07/24 08:59:28;;;;;;;7.75;5.20;;;21.10;99.90;;;;;;5033000;28;20026;-43
2023/07/24 09:01:54;;;;;;;7.05;5.20;;;21.10;99.90;;;;;;5033328;28;20052;-47
2023/07/24 09:04:22;;;;;;;7.90;5.13;;;21.10;99.90;;;;;;5033802;28;20037;-43
2023/07/24 09:06:49;;;;;;;7.15;5.10;;;21.10;99.90;;;;;;5015969;28;20026;-43
2023/07/24 09:09:15;;;;;;;8.45;5.60;;;21.10;99.90;;;;;;5032885;28;20030;-42
2023/07/24 09:11:52;;;;;;;7.10;4.40;;;21.10;99.90;;;;;;5033156;28;20041;-43
2023/07/24 09:14:25;;;;;;;7.20;5.15;;;21.10;99.90;;;;;;5032996;28;20068;-42
2023/07/24 09:17:04;;;;;;;7.53;5.03;;;21.10;99.90;;;;;;5033247;28;20021;-41
2023/07/24 09:19:30;;;;;;;7.30;4.60;;;21.10;99.90;;;;;;5032639;28;20021;-43
2023/07/24 09:21:55;;;;;;;6.15;4.97;;;21.10;99.90;;;;;;5032903;28;20013;-41
2023/07/24 09:24:21;;;;;;;8.80;5.30;;;21.10;99.90;;;;;;5032854;28;20043;-43
2023/07/24 09:26:55;;;;;;;6.50;4.57;;;21.20;99.90;;;;;;5033285;28;20037;-45
2023/07/24 09:29:21;;;;;;;9.77;4.90;;;21.10;99.90;;;;;;5032551;28;20386;-43
2023/07/24 09:31:47;;;;;;;8.93;4.68;;;21.10;99.90;;;;;;5032724;28;20025;-41
2023/07/24 09:34:17;;;;;;;6.03;4.80;;;21.10;99.90;;;;;;5032684;28;20026;-40
2023/07/24 09:36:43;;;;;;;6.18;4.70;;;21.10;99.90;;;;;;5032676;28;20022;-45
2023/07/24 09:39:11;;;;;;;6.13;5.10;;;21.10;99.90;;;;;;5032577;28;20053;-43
2023/07/24 09:41:38;;;;;;;7.40;5.10;;;21.20;99.90;;;;;;5032641;28;20058;-41
2023/07/24 09:44:03;;;;;;;6.70;4.85;;;21.10;99.90;;;;;;5032707;28;20436;-43
2023/07/24 09:46:31;;;;;;;7.20;5.03;;;21.20;99.90;;;;;;5032509;28;20026;-43
2023/07/24 09:48:57;;;;;;;7.03;4.95;;;21.20;99.90;;;;;;5032145;28;20491;-44
2023/07/24 09:51:24;;;;;;;5.82;4.45;;;21.10;99.90;;;;;;5032335;28;20516;-44
2023/07/24 09:53:49;;;;;;;9.30;5.20;;;21.10;99.90;;;;;;5032344;28;20033;-45
2023/07/24 09:56:17;;;;;;;7.38;4.70;;;21.10;99.90;;;;;;5032308;28;20087;-42
2023/07/24 09:58:44;;;;;;;7.03;4.90;;;21.10;99.90;;;;;;5031935;28;20024;-45
2023/07/24 10:01:11;;;;;;;6.32;4.75;;;21.10;99.90;;;;;;5032291;28;20078;-42
2023/07/24 10:03:49;;;;;;;6.90;5.13;;;21.10;99.90;;;;;;5032425;28;20021;-44
2023/07/24 10:06:18;;;;;;;6.15;4.68;;;21.10;99.90;;;;;;5032286;28;20022;-42
2023/07/24 10:08:44;;;;;;;7.18;5.28;;;21.10;99.90;;;;;;5031832;28;20036;-41
2023/07/24 10:11:12;;;;;;;5.90;4.43;;;21.10;99.90;;;;;;5031102;28;20480;-42
2023/07/24 10:13:39;;;;;;;7.35;4.97;;;21.10;99.90;;;;;;5031906;28;20030;-43
2023/07/24 10:16:06;;;;;;;6.30;4.95;;;21.10;99.90;;;;;;5031931;28;20122;-45
2023/07/24 10:18:41;;;;;;;7.75;5.13;;;21.10;99.90;;;;;;5031658;28;20025;-41
2023/07/24 10:21:08;;;;;;;6.25;4.43;;;21.10;99.90;;;;;;5031776;28;20041;-43
2023/07/24 10:23:35;;;;;;;6.63;4.75;;;21.10;99.90;;;;;;5031662;28;20025;-41
2023/07/24 10:26:05;;;;;;;7.20;4.57;;;21.10;99.90;;;;;;5031848;28;20021;-42
2023/07/24 10:28:33;;;;;;;9.27;5.10;;;21.10;99.90;;;;;;5032598;28;20032;-41
2023/07/24 10:31:00;;;;;;;7.45;4.55;;;21.10;99.90;;;;;;5031643;28;20028;-42
2023/07/24 10:33:30;;;;;;;7.13;4.88;;;21.10;99.90;;;;;;5031586;28;20499;-41
2023/07/24 10:36:10;;;;;;;6.82;4.63;;;21.10;99.90;;;;;;5031526;28;20025;-42
2023/07/24 10:38:38;;;;;;;8.00;5.03;;;21.10;99.90;;;;;;5031624;28;20025;-43
2023/07/24 10:41:06;;;;;;;7.15;4.88;;;21.10;99.90;;;;;;5031448;28;20033;-40
2023/07/24 10:43:47;;;;;;;7.30;4.65;;;21.10;99.90;;;;;;5031755;28;20025;-40
2023/07/24 10:46:14;;;;;;;10.10;4.97;;;21.10;99.90;;;;;;5031484;28;20033;-42
2023/07/24 10:49:02;;;;;;;7.07;4.88;;;21.10;99.90;;;;;;5031201;28;20029;-41
2023/07/24 10:51:28;;;;;;;6.15;4.53;;;21.10;99.90;;;;;;5031374;28;20503;-41
2023/07/24 10:53:54;;;;;;;7.20;4.72;;;21.10;99.90;;;;;;5031480;28;20152;-41
2023/07/24 10:56:20;;;;;;;6.50;4.40;;;21.10;99.90;;;;;;5031389;28;20455;-41
2023/07/24 10:58:45;;;;;;;8.77;5.00;;;21.10;99.90;;;;;;5031098;28;20032;-42
2023/07/24 11:01:11;;;;;;;8.10;4.57;;;21.10;99.90;;;;;;5013401;28;20305;-43
2023/07/24 11:03:39;;;;;;;8.80;4.82;;;21.10;99.90;;;;;;5031196;28;20087;-40
2023/07/24 11:06:05;;;;;;;8.75;5.07;;;21.10;99.90;;;;;;5031273;28;20025;-41
2023/07/24 11:08:31;;;;;;;7.85;4.38;;;21.10;99.90;;;;;;5031440;28;20028;-45
2023/07/24 11:10:58;;;;;;;6.65;4.57;;;21.10;99.90;;;;;;5030992;28;20045;-42
2023/07/24 11:13:28;;;;;;;7.55;4.00;;;21.10;99.90;;;;;;5031196;28;20447;-41
2023/07/24 11:15:54;;;;;;;5.95;4.28;;;21.10;99.90;;;;;;5030965;28;20039;-41
2023/07/24 11:18:22;;;;;;;6.78;4.43;;;21.10;99.90;;;;;;5030986;28;20298;-42
2023/07/24 11:20:55;;;;;;;7.15;5.05;;;21.00;99.90;;;;;;5030888;28;20021;-43
2023/07/24 11:23:21;;;;;;;5.05;4.13;;;21.10;99.90;;;;;;5033330;28;20029;-43
2023/07/24 11:25:51;;;;;;;7.25;4.53;;;21.00;99.90;;;;;;5035178;28;20109;-41
2023/07/24 11:28:17;;;;;;;8.02;4.80;;;21.10;99.90;;;;;;5034896;28;20108;-42
2023/07/24 11:30:43;;;;;;;8.60;4.97;;;21.10;99.90;;;;;;5034854;28;20053;-40
2023/07/24 11:33:13;;;;;;;7.22;4.43;;;21.10;99.90;;;;;;5035196;28;20025;-42
2023/07/24 11:35:40;;;;;;;5.18;4.05;;;21.10;99.90;;;;;;5034926;28;20558;-42
2023/07/24 11:38:09;;;;;;;6.75;4.60;;;21.10;99.90;;;;;;5034910;28;20435;-42
2023/07/24 11:40:43;;;;;;;6.90;3.95;;;21.10;99.90;;;;;;5034658;28;20052;-43
2023/07/24 11:43:17;;;;;;;7.03;4.50;;;21.10;99.90;;;;;;5034835;28;20021;-42
2023/07/24 11:45:44;;;;;;;6.45;4.38;;;21.10;99.90;;;;;;5034822;28;20045;-43
2023/07/24 11:48:11;;;;;;;6.90;4.85;;;21.10;99.90;;;;;;5034609;28;20511;-42
2023/07/24 11:50:51;;;;;;;7.85;5.07;;;21.10;99.90;;;;;;5034486;28;20033;-42
2023/07/24 11:53:30;;;;;;;6.97;4.80;;;21.10;99.90;;;;;;5034500;28;20104;-41
2023/07/24 11:56:01;;;;;;;6.70;4.63;;;21.10;99.90;;;;;;5034605;28;20037;-41
2023/07/24 11:58:27;;;;;;;6.88;4.50;;;21.10;99.90;;;;;;5034715;28;20021;-42
2023/07/24 12:00:53;;;;;;;6.80;4.25;;;21.10;99.90;;;;;;5016446;28;20052;-43
2023/07/24 12:03:21;;;;;;;8.23;4.68;;;21.10;99.90;;;;;;5034447;28;20026;-42
2023/07/24 12:05:47;;;;;;;5.72;4.47;;;21.10;99.90;;;;;;5034686;28;20022;-42
2023/07/24 12:08:14;;;;;;;6.38;4.43;;;21.10;99.90;;;;;;5016463;28;20370;-43
2023/07/24 12:10:40;;;;;;;6.00;4.43;;;21.10;99.90;;;;;;5034121;28;20021;-42
2023/07/24 12:13:06;;;;;;;5.78;4.28;;;21.10;99.90;;;;;;5034374;28;20347;-44
2023/07/24 12:15:34;;;;;;;5.40;4.20;;;21.10;99.90;;;;;;5034138;28;20072;-43
2023/07/24 12:18:00;;;;;;;6.45;4.47;;;21.10;99.90;;;;;;5033955;28;20060;-41
2023/07/24 12:20:27;;;;;;;7.93;4.95;;;21.10;99.90;;;;;;5033849;28;20083;-40
2023/07/24 12:22:53;;;;;;;6.15;4.72;;;21.20;99.90;;;;;;5034264;28;20191;-41
2023/07/24 12:25:19;;;;;;;6.28;4.57;;;21.10;99.90;;;;;;5034082;28;20067;-42
2023/07/24 12:27:48;;;;;;;5.88;4.25;;;21.10;99.90;;;;;;5033980;28;20083;-41
2023/07/24 12:30:14;;;;;;;5.68;4.32;;;21.20;99.90;;;;;;5033663;28;20393;-42
2023/07/24 12:32:40;;;;;;;8.48;4.25;;;21.10;99.90;;;;;;5033900;28;20103;-41
2023/07/24 12:35:08;;;;;;;6.95;4.75;;;21.10;99.90;;;;;;5033174;28;20045;-40
2023/07/24 12:37:34;;;;;;;7.22;4.75;;;21.10;99.90;;;;;;5033893;28;20030;-43
2023/07/24 12:42:49;;;;;;;6.68;5.05;;;21.20;99.90;;;;;;5033786;28;20044;-43
2023/07/24 12:45:15;;;;;;;7.97;4.75;;;21.10;99.90;;;;;;5033648;28;20055;-42